createdAt,value
2019-05-17T00:00:59.733Z,28.77
2019-05-17T00:03:31.120Z,32.00
2019-05-17T00:06:02.416Z,31.97
2019-05-17T00:08:34.939Z,31.83
2019-05-17T00:11:06.877Z,31.80
2019-05-17T00:13:40.118Z,30.93
2019-05-17T00:16:13.076Z,35.60
2019-05-17T00:18:46.378Z,45.13
2019-05-17T00:21:17.668Z,34.77
2019-05-17T00:23:49.320Z,39.40
2019-05-17T00:26:21.074Z,36.87
2019-05-17T00:28:53.456Z,37.93
2019-05-17T00:31:26.441Z,41.23
2019-05-17T00:33:58.896Z,34.17
2019-05-17T00:36:30.389Z,41.87
2019-05-17T00:39:01.675Z,48.30
2019-05-17T00:41:37.298Z,45.27
2019-05-17T00:44:07.922Z,50.23
2019-05-17T00:46:39.489Z,52.43
2019-05-17T00:49:11.047Z,61.93
2019-05-17T00:51:42.524Z,61.00
2019-05-17T00:54:13.865Z,46.80
2019-05-17T00:56:46.420Z,56.83
2019-05-17T00:59:18.468Z,65.73
2019-05-17T01:01:49.790Z,76.80
2019-05-17T01:04:21.244Z,74.50
2019-05-17T01:06:52.500Z,61.33
2019-05-17T01:09:24.009Z,79.63
2019-05-17T01:11:56.681Z,75.27
2019-05-17T01:14:28.371Z,63.27
2019-05-17T01:16:59.917Z,73.33
2019-05-17T01:19:31.999Z,77.33
2019-05-17T01:22:03.847Z,63.93
2019-05-17T01:24:36.854Z,73.83
2019-05-17T01:27:08.603Z,71.60
2019-05-17T01:29:39.982Z,79.33
2019-05-17T01:32:12.130Z,72.67
2019-05-17T01:34:43.632Z,70.77
2019-05-17T01:37:17.156Z,70.20
2019-05-17T01:39:49.178Z,74.07
2019-05-17T01:42:20.652Z,69.80
2019-05-17T01:44:52.153Z,73.33
2019-05-17T01:47:23.694Z,65.67
2019-05-17T01:49:57.441Z,64.57
2019-05-17T01:52:28.138Z,65.80
2019-05-17T01:54:59.375Z,64.87
2019-05-17T01:57:30.962Z,73.30
2019-05-17T02:00:02.315Z,76.27
2019-05-17T02:02:37.027Z,68.57
2019-05-17T02:05:10.911Z,67.77
2019-05-17T02:07:42.647Z,69.93
2019-05-17T02:10:16.775Z,67.80
2019-05-17T02:12:49.218Z,74.23
2019-05-17T02:15:21.298Z,66.53
2019-05-17T02:17:53.567Z,67.10
2019-05-17T02:20:27.379Z,66.10
2019-05-17T02:22:59.562Z,65.13
2019-05-17T02:25:31.338Z,76.57
2019-05-17T02:28:02.717Z,69.07
2019-05-17T02:30:34.304Z,83.33
2019-05-17T02:33:05.923Z,70.57
2019-05-17T02:35:37.282Z,81.33
2019-05-17T02:38:08.693Z,71.83
2019-05-17T02:40:43.073Z,83.03
2019-05-17T02:43:13.494Z,87.07
2019-05-17T02:45:45.036Z,83.77
2019-05-17T02:48:16.683Z,74.73
2019-05-17T02:50:48.408Z,79.57
2019-05-17T02:53:22.712Z,87.07
2019-05-17T02:55:53.956Z,75.23
2019-05-17T02:58:25.976Z,78.33
2019-05-17T03:00:58.725Z,87.30
2019-05-17T03:03:32.315Z,77.23
2019-05-17T03:06:04.140Z,81.97
2019-05-17T03:08:35.426Z,79.17
2019-05-17T03:11:07.049Z,88.07
2019-05-17T03:13:38.549Z,78.07
2019-05-17T03:16:10.098Z,92.13
2019-05-17T03:18:43.824Z,85.23
2019-05-17T03:21:14.847Z,81.23
2019-05-17T03:23:46.699Z,80.23
2019-05-17T03:26:18.352Z,78.23
2019-05-17T03:28:53.571Z,76.73
2019-05-17T03:31:27.116Z,79.33
2019-05-17T03:34:05.605Z,80.03
2019-05-17T03:36:36.452Z,82.87
2019-05-17T03:39:07.435Z,77.70
2019-05-17T03:41:38.942Z,87.70
2019-05-17T03:44:13.271Z,85.57
2019-05-17T03:46:44.639Z,79.10
2019-05-17T03:49:16.430Z,82.53
2019-05-17T03:51:48.469Z,84.53
2019-05-17T03:54:22.683Z,76.47
2019-05-17T03:56:53.412Z,75.20
2019-05-17T03:59:25.755Z,73.10
2019-05-17T04:01:59.057Z,72.57
2019-05-17T04:04:33.121Z,74.67
2019-05-17T04:07:03.705Z,78.13
2019-05-17T04:09:37.647Z,76.77
2019-05-17T04:12:08.429Z,92.70
2019-05-17T04:14:42.662Z,93.20
2019-05-17T04:17:13.298Z,94.37
2019-05-17T04:19:45.151Z,84.93
2019-05-17T04:22:16.924Z,86.67
2019-05-17T04:24:48.393Z,79.00
2019-05-17T04:27:22.781Z,75.07
2019-05-17T04:29:53.493Z,94.37
2019-05-17T04:32:25.626Z,88.77
2019-05-17T04:34:58.031Z,93.93
2019-05-17T04:37:29.706Z,87.27
2019-05-17T04:40:03.577Z,96.37
2019-05-17T04:42:34.365Z,107.93
2019-05-17T04:45:06.944Z,103.17
2019-05-17T04:47:38.393Z,181.03
2019-05-17T04:50:12.918Z,92.77
2019-05-17T04:52:46.217Z,130.30
2019-05-17T04:55:17.770Z,143.53
2019-05-17T04:57:52.665Z,103.30
2019-05-17T05:00:26.113Z,130.67
2019-05-17T05:02:57.562Z,113.10
2019-05-17T05:05:28.902Z,85.57
2019-05-17T05:08:03.016Z,120.50
2019-05-17T05:10:36.163Z,189.37
2019-05-17T05:13:06.281Z,167.27
2019-05-17T05:15:44.103Z,168.87
2019-05-17T05:18:15.195Z,195.17
2019-05-17T05:20:46.869Z,186.70
2019-05-17T05:23:18.379Z,135.10
2019-05-17T05:25:52.103Z,89.37
2019-05-17T05:28:22.827Z,102.07
2019-05-17T05:30:54.258Z,82.77
2019-05-17T05:33:25.823Z,71.33
2019-05-17T05:35:57.179Z,79.73
2019-05-17T05:38:28.569Z,91.10
2019-05-17T05:41:01.795Z,81.20
2019-05-17T05:43:34.738Z,98.30
2019-05-17T05:46:06.402Z,76.13
2019-05-17T05:48:37.748Z,85.47
2019-05-17T05:51:09.161Z,70.17
2019-05-17T05:53:41.872Z,66.10
2019-05-17T05:56:13.597Z,69.17
2019-05-17T05:58:46.366Z,72.07
2019-05-17T06:01:18.065Z,69.93
2019-05-17T06:03:51.896Z,66.07
2019-05-17T06:06:22.513Z,75.47
2019-05-17T06:08:53.879Z,64.20
2019-05-17T06:11:25.415Z,58.53
2019-05-17T06:13:56.727Z,53.47
2019-05-17T06:16:28.220Z,52.33
2019-05-17T06:18:59.610Z,43.37
2019-05-17T06:21:31.925Z,51.90
2019-05-17T06:24:03.493Z,51.20
2019-05-17T06:26:35.896Z,43.53
2019-05-17T06:29:07.382Z,46.37
2019-05-17T06:31:38.853Z,45.83
2019-05-17T06:34:11.646Z,46.73
2019-05-17T06:36:43.111Z,38.67
2019-05-17T06:39:16.513Z,40.80
2019-05-17T06:41:48.111Z,39.37
2019-05-17T06:44:21.494Z,39.10
2019-05-17T06:46:52.681Z,30.20
2019-05-17T06:49:24.134Z,36.27
2019-05-17T06:51:55.519Z,37.27
2019-05-17T06:54:27.708Z,45.00
2019-05-17T06:56:59.183Z,39.00
2019-05-17T06:59:30.526Z,35.83
2019-05-17T07:02:01.907Z,43.00
2019-05-17T07:04:33.374Z,33.53
2019-05-17T07:07:22.286Z,44.13
2019-05-17T07:09:53.823Z,32.57
2019-05-17T07:12:26.483Z,35.37
2019-05-17T07:14:58.513Z,25.00
2019-05-17T07:17:31.129Z,27.87
2019-05-17T07:20:05.479Z,33.57
2019-05-17T07:22:36.861Z,22.87
2019-05-17T07:25:10.817Z,32.20
2019-05-17T07:27:45.759Z,31.53
2019-05-17T07:30:15.486Z,33.73
2019-05-17T07:32:49.608Z,23.43
2019-05-17T07:35:20.227Z,49.07
2019-05-17T07:37:51.708Z,31.07
2019-05-17T07:40:23.370Z,37.17
2019-05-17T07:43:07.038Z,23.50
2019-05-17T07:45:29.559Z,30.50
2019-05-17T07:48:01.041Z,27.43
2019-05-17T07:50:32.397Z,30.37
2019-05-17T07:53:03.825Z,27.07
2019-05-17T07:55:36.240Z,65.43
2019-05-17T07:58:09.716Z,36.60
2019-05-17T08:00:40.661Z,29.33
2019-05-17T08:03:13.127Z,54.07
2019-05-17T08:05:45.550Z,33.93
2019-05-17T08:08:23.080Z,27.57
2019-05-17T08:10:54.590Z,59.37
2019-05-17T08:13:30.567Z,51.13
2019-05-17T08:15:59.638Z,22.83
2019-05-17T08:18:31.091Z,24.13
2019-05-17T08:21:02.542Z,20.67
2019-05-17T08:23:35.451Z,17.67
2019-05-17T08:26:10.479Z,18.87
2019-05-17T08:28:41.117Z,21.77
2019-05-17T08:31:12.513Z,18.60
2019-05-17T08:33:44.427Z,22.63
2019-05-17T08:36:16.447Z,20.23
2019-05-17T08:38:50.007Z,17.70
2019-05-17T08:41:22.253Z,22.40
2019-05-17T08:43:56.670Z,17.83
2019-05-17T08:46:30.791Z,24.00
2019-05-17T08:49:02.099Z,19.87
2019-05-17T08:51:33.459Z,19.23
2019-05-17T08:54:04.930Z,25.73
2019-05-17T08:56:40.035Z,24.13
2019-05-17T08:59:10.985Z,20.93
2019-05-17T09:01:42.394Z,17.10
2019-05-17T09:04:15.272Z,15.77
2019-05-17T09:06:46.944Z,16.07
2019-05-17T09:09:20.482Z,14.03
2019-05-17T09:11:54.459Z,19.27
2019-05-17T09:14:25.844Z,18.50
2019-05-17T09:17:00.232Z,14.90
2019-05-17T09:19:30.195Z,17.67
2019-05-17T09:22:01.603Z,16.47
2019-05-17T09:24:33.095Z,20.77
2019-05-17T09:27:04.455Z,20.13
2019-05-17T09:29:40.451Z,18.00
2019-05-17T09:32:12.247Z,16.07
2019-05-17T09:34:43.774Z,16.87
2019-05-17T09:37:22.128Z,21.77
2019-05-17T09:39:52.771Z,17.57
2019-05-17T09:42:24.852Z,15.27
2019-05-17T09:44:56.350Z,15.50
2019-05-17T09:47:30.101Z,17.53
2019-05-17T09:50:01.760Z,15.13
2019-05-17T09:52:34.996Z,12.27
2019-05-17T09:55:06.458Z,13.23
2019-05-17T09:57:40.233Z,17.10
2019-05-17T10:00:12.453Z,13.13
2019-05-17T10:02:44.004Z,16.53
2019-05-17T10:05:16.059Z,15.10
2019-05-17T10:07:50.628Z,17.13
2019-05-17T10:10:22.481Z,15.37
2019-05-17T10:12:53.931Z,11.70
2019-05-17T10:15:25.470Z,14.30
2019-05-17T10:18:00.420Z,18.00
2019-05-17T10:20:31.355Z,16.53
2019-05-17T10:23:02.884Z,17.07
2019-05-17T10:25:34.722Z,10.77
2019-05-17T10:28:06.107Z,11.93
2019-05-17T10:30:39.556Z,12.70
2019-05-17T10:33:10.506Z,16.37
2019-05-17T10:35:41.867Z,11.07
2019-05-17T10:38:13.254Z,13.63
2019-05-17T10:40:58.196Z,11.77
2019-05-17T10:43:29.990Z,12.10
2019-05-17T10:46:01.598Z,8.77
2019-05-17T10:48:32.983Z,12.40
2019-05-17T10:51:05.324Z,16.53
2019-05-17T10:53:40.160Z,15.33
2019-05-17T10:56:10.970Z,11.97
2019-05-17T10:58:42.385Z,15.00
2019-05-17T11:01:13.931Z,13.63
2019-05-17T11:03:46.628Z,10.80
2019-05-17T11:06:19.751Z,10.60
2019-05-17T11:08:51.266Z,11.10
2019-05-17T11:11:22.685Z,15.47
2019-05-17T11:13:54.199Z,12.60
2019-05-17T11:16:25.926Z,10.57
2019-05-17T11:18:57.395Z,12.03
2019-05-17T11:21:29.860Z,15.03
2019-05-17T11:24:01.536Z,12.53
2019-05-17T11:26:34.602Z,17.27
2019-05-17T11:29:09.501Z,17.70
2019-05-17T11:31:40.838Z,8.73
2019-05-17T11:34:14.516Z,10.23
2019-05-17T11:36:46.234Z,14.83
2019-05-17T11:39:18.171Z,10.30
2019-05-17T11:41:49.691Z,11.03
2019-05-17T11:44:21.033Z,14.63
2019-05-17T11:46:53.989Z,12.93
2019-05-17T11:49:26.609Z,11.90
2019-05-17T11:51:58.267Z,10.33
2019-05-17T11:54:31.280Z,13.03
2019-05-17T11:57:02.875Z,13.47
2019-05-17T11:59:34.330Z,10.20
2019-05-17T12:02:05.711Z,11.10
2019-05-17T12:04:37.085Z,12.07
2019-05-17T12:07:09.090Z,14.60
2019-05-17T12:09:40.441Z,14.23
2019-05-17T12:12:11.902Z,12.47
2019-05-17T12:14:43.221Z,10.20
2019-05-17T12:17:15.120Z,12.13
2019-05-17T12:19:46.948Z,17.80
2019-05-17T12:22:18.373Z,16.10
2019-05-17T12:24:49.838Z,12.43
2019-05-17T12:27:21.547Z,13.77
2019-05-17T12:29:52.869Z,11.40
2019-05-17T12:32:24.309Z,10.77
2019-05-17T12:34:55.802Z,11.03
2019-05-17T12:37:27.291Z,9.73
2019-05-17T12:40:01.299Z,12.60
2019-05-17T12:42:33.281Z,14.80
2019-05-17T12:45:04.927Z,12.03
2019-05-17T12:47:37.212Z,15.83
2019-05-17T12:50:08.885Z,14.03
2019-05-17T12:52:40.267Z,12.07
2019-05-17T12:55:12.777Z,12.07
2019-05-17T12:57:44.744Z,11.67
2019-05-17T13:00:16.613Z,12.43
2019-05-17T13:02:48.182Z,10.93
2019-05-17T13:05:19.716Z,17.83
2019-05-17T13:07:51.095Z,9.27
2019-05-17T13:10:22.421Z,14.60
2019-05-17T13:12:55.059Z,9.88
2019-05-17T13:15:26.474Z,9.80
2019-05-17T13:17:57.833Z,10.38
2019-05-17T13:20:29.237Z,13.75
2019-05-17T13:23:00.563Z,8.95
2019-05-17T13:25:31.939Z,12.05
2019-05-17T13:28:03.589Z,9.30
2019-05-17T13:30:35.019Z,13.40
2019-05-17T13:33:06.717Z,14.80
2019-05-17T13:35:38.226Z,13.47
2019-05-17T13:38:09.702Z,12.37
2019-05-17T13:40:41.176Z,12.80
2019-05-17T13:43:12.507Z,11.30
2019-05-17T13:45:44.762Z,10.83
2019-05-17T13:48:16.899Z,12.27
2019-05-17T13:50:51.752Z,11.13
2019-05-17T13:53:21.387Z,14.05
2019-05-17T13:55:55.497Z,13.08
2019-05-17T13:58:27.087Z,15.10
2019-05-17T14:00:58.389Z,12.03
2019-05-17T14:03:29.993Z,14.78
2019-05-17T14:06:01.506Z,13.17
2019-05-17T14:08:32.938Z,12.40
2019-05-17T14:11:04.537Z,12.47
2019-05-17T14:13:35.929Z,12.03
2019-05-17T14:16:07.560Z,11.10
2019-05-17T14:18:38.814Z,12.50
2019-05-17T14:21:12.615Z,10.53
2019-05-17T14:23:44.040Z,13.40
2019-05-17T14:26:15.953Z,11.80
2019-05-17T14:28:47.373Z,9.65
2019-05-17T14:31:18.828Z,14.35
2019-05-17T14:33:50.108Z,10.20
2019-05-17T14:36:21.572Z,12.20
2019-05-17T14:38:53.519Z,11.70
2019-05-17T14:41:25.019Z,12.93
2019-05-17T14:43:56.445Z,12.73
2019-05-17T14:46:27.822Z,14.18
2019-05-17T14:48:59.067Z,12.33
2019-05-17T14:51:30.634Z,15.08
2019-05-17T14:54:02.129Z,13.32
2019-05-17T14:56:33.465Z,15.90
2019-05-17T14:59:05.027Z,11.93
2019-05-17T15:01:36.304Z,10.90
2019-05-17T15:04:07.942Z,11.22
2019-05-17T15:06:40.834Z,12.20
2019-05-17T15:09:12.382Z,11.80
2019-05-17T15:11:43.987Z,15.25
2019-05-17T15:14:15.621Z,11.88
2019-05-17T15:16:47.188Z,13.13
2019-05-17T15:19:18.599Z,15.17
2019-05-17T15:21:50.066Z,15.40
2019-05-17T15:24:21.489Z,15.33
2019-05-17T15:27:04.718Z,16.07
2019-05-17T15:29:26.119Z,19.20
2019-05-17T15:31:57.514Z,18.83
2019-05-17T15:34:28.883Z,16.05
2019-05-17T15:37:00.555Z,40.27
2019-05-17T15:39:32.004Z,30.93
2019-05-17T15:42:03.310Z,20.13
2019-05-17T15:44:34.691Z,37.57
2019-05-17T15:47:06.243Z,56.50
2019-05-17T15:49:37.720Z,48.65
2019-05-17T15:52:12.105Z,33.83
2019-05-17T15:54:43.510Z,29.42
2019-05-17T15:57:15.575Z,22.23
2019-05-17T15:59:47.470Z,25.40
2019-05-17T16:02:19.120Z,33.60
2019-05-17T16:04:50.740Z,25.30
2019-05-17T16:07:22.337Z,35.33
2019-05-17T16:09:53.827Z,26.90
2019-05-17T16:12:25.291Z,26.27
2019-05-17T16:14:56.651Z,31.23
2019-05-17T16:17:29.495Z,30.37
2019-05-17T16:20:00.860Z,32.63
2019-05-17T16:22:32.210Z,30.10
2019-05-17T16:25:04.774Z,26.10
2019-05-17T16:27:36.427Z,29.40
2019-05-17T16:30:08.025Z,21.07
2019-05-17T16:32:39.917Z,16.83
2019-05-17T16:35:11.566Z,15.93
2019-05-17T16:37:42.889Z,18.63
2019-05-17T16:40:14.528Z,17.67
2019-05-17T16:42:46.041Z,20.70
2019-05-17T16:45:19.617Z,19.33
2019-05-17T16:47:51.074Z,18.73
2019-05-17T16:50:25.069Z,20.83
2019-05-17T16:53:05.556Z,22.60
2019-05-17T16:55:29.610Z,16.83
2019-05-17T16:58:01.044Z,26.27
2019-05-17T17:00:35.938Z,22.93
2019-05-17T17:03:09.371Z,31.83
2019-05-17T17:05:40.612Z,29.40
2019-05-17T17:08:12.044Z,28.53
2019-05-17T17:10:43.429Z,42.57
2019-05-17T17:13:15.110Z,40.77
2019-05-17T17:15:47.887Z,41.53
2019-05-17T17:18:19.418Z,35.87
2019-05-17T17:20:50.756Z,43.77
2019-05-17T17:23:22.213Z,26.33
2019-05-17T17:25:53.553Z,30.47
2019-05-17T17:28:25.662Z,29.00
2019-05-17T17:30:57.052Z,35.80
2019-05-17T17:33:32.477Z,30.80
2019-05-17T17:36:03.898Z,38.53
2019-05-17T17:38:36.875Z,28.97
2019-05-17T17:41:09.776Z,29.37
2019-05-17T17:43:57.319Z,20.53
2019-05-17T17:46:18.056Z,26.27
2019-05-17T17:48:54.423Z,24.23
2019-05-17T17:51:34.173Z,20.50
2019-05-17T17:54:06.706Z,28.30
2019-05-17T17:56:42.048Z,30.27
2019-05-17T17:59:13.525Z,28.00
2019-05-17T18:01:45.683Z,29.47
2019-05-17T18:04:19.935Z,21.13
2019-05-17T18:06:51.429Z,19.17
2019-05-17T18:09:24.584Z,22.37
2019-05-17T18:11:57.803Z,31.90
2019-05-17T18:14:29.633Z,21.57
2019-05-17T18:17:02.279Z,26.20
2019-05-17T18:19:36.845Z,22.63
2019-05-17T18:22:08.662Z,22.50
2019-05-17T18:24:40.142Z,24.07
2019-05-17T18:27:13.811Z,28.80
2019-05-17T18:29:48.369Z,29.23
2019-05-17T18:32:19.830Z,27.00
2019-05-17T18:34:51.490Z,21.20
2019-05-17T18:37:27.061Z,56.13
2019-05-17T18:39:59.178Z,74.77
2019-05-17T18:42:30.675Z,55.80
2019-05-17T18:45:02.417Z,31.03
2019-05-17T18:47:36.861Z,34.47
2019-05-17T18:50:08.917Z,38.77
2019-05-17T18:52:40.834Z,42.87
2019-05-17T18:55:15.838Z,35.80
2019-05-17T18:57:49.487Z,41.33
2019-05-17T19:00:22.221Z,53.07
2019-05-17T19:02:56.882Z,37.60
2019-05-17T19:05:38.670Z,49.70
2019-05-17T19:08:10.423Z,42.17
2019-05-17T19:10:43.704Z,56.63
2019-05-17T19:13:17.053Z,98.13
2019-05-17T19:15:54.533Z,64.70
2019-05-17T19:18:26.003Z,63.50
2019-05-17T19:20:57.649Z,56.00
2019-05-17T19:23:29.101Z,59.33
2019-05-17T19:26:00.439Z,82.10
2019-05-17T19:28:32.107Z,73.33
2019-05-17T19:31:03.462Z,71.63
2019-05-17T19:33:34.910Z,74.53
2019-05-17T19:36:07.804Z,74.70
2019-05-17T19:38:39.237Z,89.50
2019-05-17T19:41:10.797Z,64.87
2019-05-17T19:43:45.090Z,75.80
2019-05-17T19:46:17.014Z,80.63
2019-05-17T19:48:51.903Z,86.70
2019-05-17T19:51:26.796Z,89.97
2019-05-17T19:54:00.147Z,98.67
2019-05-17T19:56:36.264Z,91.30
2019-05-17T19:59:09.518Z,100.73
2019-05-17T20:01:47.183Z,87.43
2019-05-17T20:04:20.387Z,97.57
2019-05-17T20:06:54.208Z,102.27
2019-05-17T20:09:25.613Z,101.10
2019-05-17T20:11:57.010Z,390.00
2019-05-17T20:14:35.681Z,1200.93
2019-05-17T20:17:08.836Z,539.13
2019-05-17T20:20:07.032Z,177.13
2019-05-17T20:22:41.108Z,273.87
2019-05-17T20:25:17.861Z,93.33
2019-05-17T20:27:49.640Z,437.20
2019-05-17T20:30:21.031Z,103.73
2019-05-17T20:33:01.974Z,87.43
2019-05-17T20:35:31.485Z,93.27
2019-05-17T20:38:05.562Z,96.40
2019-05-17T20:40:37.064Z,84.63
2019-05-17T20:43:08.473Z,83.43
2019-05-17T20:45:41.510Z,90.20
2019-05-17T20:48:15.474Z,84.17
2019-05-17T20:50:47.293Z,76.17
2019-05-17T20:53:19.449Z,92.13
2019-05-17T20:56:00.440Z,103.67
2019-05-17T20:58:33.362Z,84.83
2019-05-17T21:01:05.038Z,90.43
2019-05-17T21:03:36.375Z,103.97
2019-05-17T21:06:07.815Z,97.47
2019-05-17T21:08:46.056Z,103.40
2019-05-17T21:11:13.385Z,118.80
2019-05-17T21:13:45.378Z,136.10
2019-05-17T21:16:16.853Z,115.90
2019-05-17T21:18:49.690Z,133.30
2019-05-17T21:21:23.845Z,146.67
2019-05-17T21:23:55.265Z,166.90
2019-05-17T21:26:26.827Z,153.63
2019-05-17T21:28:58.273Z,145.47
2019-05-17T21:31:29.621Z,118.50
2019-05-17T21:34:05.805Z,130.73
2019-05-17T21:36:37.187Z,134.80
2019-05-17T21:39:08.871Z,124.87
2019-05-17T21:41:41.697Z,135.83
2019-05-17T21:44:15.157Z,117.10
2019-05-17T21:47:03.698Z,105.80
2019-05-17T21:49:22.504Z,98.00
2019-05-17T21:51:56.706Z,89.23
2019-05-17T21:54:32.302Z,97.67
2019-05-17T21:57:04.699Z,90.47
2019-05-17T21:59:36.228Z,88.03
2019-05-17T22:02:11.721Z,72.00
2019-05-17T22:04:43.301Z,66.90
2019-05-17T22:07:15.250Z,72.33
2019-05-17T22:09:47.065Z,91.93
2019-05-17T22:12:22.089Z,81.87
2019-05-17T22:14:53.781Z,66.40
2019-05-17T22:17:27.648Z,74.97
2019-05-17T22:20:05.263Z,68.57
2019-05-17T22:22:38.259Z,86.77
2019-05-17T22:25:14.487Z,81.60
2019-05-17T22:27:46.015Z,74.67
2019-05-17T22:30:20.398Z,71.43
2019-05-17T22:32:51.901Z,65.50
2019-05-17T22:35:23.478Z,63.30
2019-05-17T22:37:54.940Z,73.93
2019-05-17T22:40:26.361Z,70.23
2019-05-17T22:42:57.753Z,68.90
2019-05-17T22:45:45.563Z,72.03
2019-05-17T22:48:10.347Z,73.30
2019-05-17T22:50:41.803Z,74.43
2019-05-17T22:53:14.960Z,77.40
2019-05-17T22:55:46.589Z,55.50
2019-05-17T22:58:18.301Z,70.37
2019-05-17T23:00:49.800Z,66.50
2019-05-17T23:03:21.213Z,69.47
2019-05-17T23:05:56.119Z,61.43
2019-05-17T23:08:27.532Z,64.33
2019-05-17T23:10:58.889Z,63.77
2019-05-17T23:13:30.403Z,64.30
2019-05-17T23:16:03.595Z,73.90
2019-05-17T23:18:35.896Z,56.00
2019-05-17T23:21:07.572Z,65.50
2019-05-17T23:23:38.887Z,58.90
2019-05-17T23:26:10.444Z,57.87
2019-05-17T23:28:42.011Z,53.50
2019-05-17T23:31:13.489Z,59.80
2019-05-17T23:33:45.227Z,55.73
2019-05-17T23:36:16.704Z,52.17
2019-05-17T23:38:48.162Z,59.60
2019-05-17T23:41:19.544Z,50.47
2019-05-17T23:43:51.020Z,61.27
2019-05-17T23:46:22.494Z,59.73
2019-05-17T23:48:53.964Z,54.87
2019-05-17T23:51:25.406Z,56.00
2019-05-17T23:53:57.408Z,62.97
2019-05-17T23:56:29.389Z,64.07
2019-05-17T23:59:00.711Z,57.90
